sensor_id;sensor_type;location;lat;lon;timestamp;P1;durP1;ratioP1;P2;durP2;ratioP2
78156;SDS011;67400;49.360;8.266;2023-05-10T00:01:14;1.63;;;1.38;;
78156;SDS011;67400;49.360;8.266;2023-05-10T00:02:33;2.22;;;1.50;;
78156;SDS011;67400;49.360;8.266;2023-05-10T00:05:18;1.73;;;1.15;;
78156;SDS011;67400;49.360;8.266;2023-05-10T00:06:43;4.63;;;1.20;;
78156;SDS011;67400;49.360;8.266;2023-05-10T00:08:03;3.17;;;1.48;;
78156;SDS011;67400;49.360;8.266;2023-05-10T00:09:23;2.50;;;1.42;;
78156;SDS011;67400;49.360;8.266;2023-05-10T00:10:42;2.20;;;1.60;;
78156;SDS011;67400;49.360;8.266;2023-05-10T00:12:02;2.13;;;1.48;;
78156;SDS011;67400;49.360;8.266;2023-05-10T00:13:22;2.35;;;1.52;;
78156;SDS011;67400;49.360;8.266;2023-05-10T00:14:41;1.98;;;1.40;;
78156;SDS011;67400;49.360;8.266;2023-05-10T00:16:01;2.78;;;1.30;;
78156;SDS011;67400;49.360;8.266;2023-05-10T00:17:21;2.58;;;1.40;;
78156;SDS011;67400;49.360;8.266;2023-05-10T00:18:40;1.83;;;1.38;;
78156;SDS011;67400;49.360;8.266;2023-05-10T00:20:00;1.95;;;1.73;;
78156;SDS011;67400;49.360;8.266;2023-05-10T00:21:20;3.83;;;1.40;;
78156;SDS011;67400;49.360;8.266;2023-05-10T00:22:41;2.72;;;1.40;;
78156;SDS011;67400;49.360;8.266;2023-05-10T00:24:02;3.22;;;1.40;;
78156;SDS011;67400;49.360;8.266;2023-05-10T00:25:21;1.85;;;1.60;;
78156;SDS011;67400;49.360;8.266;2023-05-10T00:26:41;3.13;;;1.60;;
78156;SDS011;67400;49.360;8.266;2023-05-10T00:28:02;2.92;;;1.45;;
78156;SDS011;67400;49.360;8.266;2023-05-10T00:29:21;2.03;;;1.42;;
78156;SDS011;67400;49.360;8.266;2023-05-10T00:30:41;2.17;;;1.20;;
78156;SDS011;67400;49.360;8.266;2023-05-10T00:32:01;1.92;;;1.50;;
78156;SDS011;67400;49.360;8.266;2023-05-10T00:33:21;2.00;;;1.55;;
78156;SDS011;67400;49.360;8.266;2023-05-10T00:34:41;2.35;;;1.35;;
78156;SDS011;67400;49.360;8.266;2023-05-10T00:36:01;1.75;;;1.30;;
78156;SDS011;67400;49.360;8.266;2023-05-10T00:37:21;2.17;;;1.50;;
78156;SDS011;67400;49.360;8.266;2023-05-10T00:38:45;3.20;;;1.40;;
78156;SDS011;67400;49.360;8.266;2023-05-10T00:40:05;2.90;;;1.50;;
78156;SDS011;67400;49.360;8.266;2023-05-10T00:41:25;1.58;;;1.40;;
78156;SDS011;67400;49.360;8.266;2023-05-10T00:42:47;1.80;;;1.30;;
78156;SDS011;67400;49.360;8.266;2023-05-10T00:44:06;1.75;;;1.50;;
78156;SDS011;67400;49.360;8.266;2023-05-10T00:45:26;1.63;;;1.30;;
78156;SDS011;67400;49.360;8.266;2023-05-10T00:46:46;3.45;;;1.50;;
78156;SDS011;67400;49.360;8.266;2023-05-10T00:48:07;2.63;;;1.40;;
78156;SDS011;67400;49.360;8.266;2023-05-10T00:49:27;1.80;;;1.52;;
78156;SDS011;67400;49.360;8.266;2023-05-10T00:50:47;1.63;;;1.30;;
78156;SDS011;67400;49.360;8.266;2023-05-10T00:52:06;1.98;;;1.58;;
78156;SDS011;67400;49.360;8.266;2023-05-10T00:53:26;3.83;;;1.02;;
78156;SDS011;67400;49.360;8.266;2023-05-10T00:54:49;2.28;;;1.40;;
78156;SDS011;67400;49.360;8.266;2023-05-10T00:56:09;2.95;;;1.35;;
78156;SDS011;67400;49.360;8.266;2023-05-10T00:57:29;1.67;;;1.20;;
78156;SDS011;67400;49.360;8.266;2023-05-10T00:58:49;2.88;;;1.33;;
78156;SDS011;67400;49.360;8.266;2023-05-10T01:00:08;3.75;;;1.38;;
78156;SDS011;67400;49.360;8.266;2023-05-10T01:01:29;1.38;;;1.00;;
78156;SDS011;67400;49.360;8.266;2023-05-10T01:02:49;1.33;;;1.20;;
78156;SDS011;67400;49.360;8.266;2023-05-10T01:04:10;1.45;;;1.20;;
78156;SDS011;67400;49.360;8.266;2023-05-10T01:05:32;1.98;;;1.15;;
78156;SDS011;67400;49.360;8.266;2023-05-10T01:06:52;2.38;;;1.17;;
78156;SDS011;67400;49.360;8.266;2023-05-10T01:08:14;1.98;;;1.10;;
78156;SDS011;67400;49.360;8.266;2023-05-10T01:09:35;1.20;;;1.05;;
78156;SDS011;67400;49.360;8.266;2023-05-10T01:10:54;1.55;;;1.30;;
78156;SDS011;67400;49.360;8.266;2023-05-10T01:12:14;1.70;;;1.23;;
78156;SDS011;67400;49.360;8.266;2023-05-10T01:13:38;6.20;;;1.30;;
78156;SDS011;67400;49.360;8.266;2023-05-10T01:14:58;2.47;;;1.38;;
78156;SDS011;67400;49.360;8.266;2023-05-10T01:16:19;4.57;;;1.50;;
78156;SDS011;67400;49.360;8.266;2023-05-10T01:17:41;1.75;;;1.40;;
78156;SDS011;67400;49.360;8.266;2023-05-10T01:19:01;2.40;;;1.20;;
78156;SDS011;67400;49.360;8.266;2023-05-10T01:20:23;1.55;;;1.40;;
78156;SDS011;67400;49.360;8.266;2023-05-10T01:21:49;1.52;;;1.20;;
78156;SDS011;67400;49.360;8.266;2023-05-10T01:23:18;1.52;;;1.30;;
78156;SDS011;67400;49.360;8.266;2023-05-10T01:26:13;3.65;;;1.42;;
78156;SDS011;67400;49.360;8.266;2023-05-10T01:31:22;1.25;;;1.10;;
78156;SDS011;67400;49.360;8.266;2023-05-10T01:34:09;3.00;;;1.30;;
78156;SDS011;67400;49.360;8.266;2023-05-10T01:36:52;5.68;;;1.40;;
78156;SDS011;67400;49.360;8.266;2023-05-10T01:38:18;1.90;;;1.30;;
78156;SDS011;67400;49.360;8.266;2023-05-10T01:39:43;2.72;;;1.08;;
78156;SDS011;67400;49.360;8.266;2023-05-10T01:41:10;4.88;;;1.27;;
78156;SDS011;67400;49.360;8.266;2023-05-10T01:42:36;1.83;;;1.30;;
78156;SDS011;67400;49.360;8.266;2023-05-10T01:46:43;2.88;;;1.27;;
78156;SDS011;67400;49.360;8.266;2023-05-10T01:48:05;5.05;;;1.40;;
78156;SDS011;67400;49.360;8.266;2023-05-10T01:49:29;2.72;;;1.40;;
78156;SDS011;67400;49.360;8.266;2023-05-10T01:50:52;2.08;;;1.40;;
78156;SDS011;67400;49.360;8.266;2023-05-10T01:52:14;3.20;;;1.48;;
78156;SDS011;67400;49.360;8.266;2023-05-10T01:53:34;2.17;;;1.80;;
78156;SDS011;67400;49.360;8.266;2023-05-10T01:55:00;2.83;;;1.40;;
78156;SDS011;67400;49.360;8.266;2023-05-10T01:56:22;1.70;;;1.30;;
78156;SDS011;67400;49.360;8.266;2023-05-10T01:57:44;4.55;;;1.63;;
78156;SDS011;67400;49.360;8.266;2023-05-10T01:59:05;3.78;;;1.65;;
78156;SDS011;67400;49.360;8.266;2023-05-10T02:00:25;4.63;;;1.40;;
78156;SDS011;67400;49.360;8.266;2023-05-10T02:01:46;3.47;;;1.80;;
78156;SDS011;67400;49.360;8.266;2023-05-10T02:03:07;3.67;;;1.83;;
78156;SDS011;67400;49.360;8.266;2023-05-10T02:04:29;4.05;;;1.90;;
78156;SDS011;67400;49.360;8.266;2023-05-10T02:05:49;4.45;;;1.65;;
78156;SDS011;67400;49.360;8.266;2023-05-10T02:07:10;3.47;;;2.00;;
78156;SDS011;67400;49.360;8.266;2023-05-10T02:08:31;2.55;;;2.00;;
78156;SDS011;67400;49.360;8.266;2023-05-10T02:09:52;6.30;;;2.00;;
78156;SDS011;67400;49.360;8.266;2023-05-10T02:11:13;2.33;;;1.98;;
78156;SDS011;67400;49.360;8.266;2023-05-10T02:12:36;3.03;;;2.53;;
78156;SDS011;67400;49.360;8.266;2023-05-10T02:13:57;3.78;;;2.78;;
78156;SDS011;67400;49.360;8.266;2023-05-10T02:15:22;3.03;;;2.47;;
78156;SDS011;67400;49.360;8.266;2023-05-10T02:16:42;2.88;;;2.47;;
78156;SDS011;67400;49.360;8.266;2023-05-10T02:18:04;4.38;;;2.70;;
78156;SDS011;67400;49.360;8.266;2023-05-10T02:19:24;6.68;;;2.08;;
78156;SDS011;67400;49.360;8.266;2023-05-10T02:20:45;5.88;;;2.22;;
78156;SDS011;67400;49.360;8.266;2023-05-10T02:22:05;3.55;;;2.28;;
78156;SDS011;67400;49.360;8.266;2023-05-10T02:23:27;4.45;;;2.00;;
78156;SDS011;67400;49.360;8.266;2023-05-10T02:24:49;2.50;;;2.05;;
78156;SDS011;67400;49.360;8.266;2023-05-10T02:26:11;3.88;;;2.10;;
78156;SDS011;67400;49.360;8.266;2023-05-10T02:27:32;2.75;;;1.63;;
78156;SDS011;67400;49.360;8.266;2023-05-10T02:28:53;3.20;;;1.70;;
78156;SDS011;67400;49.360;8.266;2023-05-10T02:30:14;3.90;;;1.83;;
78156;SDS011;67400;49.360;8.266;2023-05-10T02:31:35;1.92;;;1.50;;
78156;SDS011;67400;49.360;8.266;2023-05-10T02:32:57;4.05;;;1.42;;
78156;SDS011;67400;49.360;8.266;2023-05-10T02:34:17;2.10;;;1.60;;
78156;SDS011;67400;49.360;8.266;2023-05-10T02:35:38;2.00;;;1.60;;
78156;SDS011;67400;49.360;8.266;2023-05-10T02:37:02;3.85;;;1.45;;
78156;SDS011;67400;49.360;8.266;2023-05-10T02:38:25;5.50;;;1.50;;
78156;SDS011;67400;49.360;8.266;2023-05-10T02:39:46;1.67;;;1.42;;
78156;SDS011;67400;49.360;8.266;2023-05-10T02:41:08;1.70;;;1.45;;
78156;SDS011;67400;49.360;8.266;2023-05-10T02:42:29;3.47;;;1.60;;
78156;SDS011;67400;49.360;8.266;2023-05-10T02:43:49;3.80;;;1.55;;
78156;SDS011;67400;49.360;8.266;2023-05-10T02:45:11;1.70;;;1.23;;
78156;SDS011;67400;49.360;8.266;2023-05-10T02:46:31;1.95;;;1.30;;
78156;SDS011;67400;49.360;8.266;2023-05-10T02:47:51;2.10;;;1.30;;
78156;SDS011;67400;49.360;8.266;2023-05-10T02:49:13;4.85;;;2.05;;
78156;SDS011;67400;49.360;8.266;2023-05-10T02:50:33;2.80;;;1.45;;
78156;SDS011;67400;49.360;8.266;2023-05-10T02:51:55;4.10;;;1.50;;
78156;SDS011;67400;49.360;8.266;2023-05-10T02:53:18;2.50;;;1.52;;
78156;SDS011;67400;49.360;8.266;2023-05-10T02:54:43;4.20;;;1.48;;
78156;SDS011;67400;49.360;8.266;2023-05-10T02:56:04;3.15;;;1.48;;
78156;SDS011;67400;49.360;8.266;2023-05-10T02:57:29;1.83;;;1.48;;
78156;SDS011;67400;49.360;8.266;2023-05-10T02:58:51;2.30;;;1.70;;
78156;SDS011;67400;49.360;8.266;2023-05-10T03:00:11;2.53;;;1.65;;
78156;SDS011;67400;49.360;8.266;2023-05-10T03:01:31;2.17;;;1.35;;
78156;SDS011;67400;49.360;8.266;2023-05-10T03:02:50;1.88;;;1.30;;
78156;SDS011;67400;49.360;8.266;2023-05-10T03:04:10;4.60;;;1.60;;
78156;SDS011;67400;49.360;8.266;2023-05-10T03:05:29;2.55;;;1.67;;
78156;SDS011;67400;49.360;8.266;2023-05-10T03:06:53;2.20;;;1.60;;
78156;SDS011;67400;49.360;8.266;2023-05-10T03:08:12;4.75;;;1.77;;
78156;SDS011;67400;49.360;8.266;2023-05-10T03:09:32;4.18;;;1.67;;
78156;SDS011;67400;49.360;8.266;2023-05-10T03:10:58;3.40;;;1.50;;
78156;SDS011;67400;49.360;8.266;2023-05-10T03:16:45;5.25;;;2.00;;
78156;SDS011;67400;49.360;8.266;2023-05-10T03:18:10;7.18;;;1.60;;
78156;SDS011;67400;49.360;8.266;2023-05-10T03:19:32;3.20;;;1.50;;
78156;SDS011;67400;49.360;8.266;2023-05-10T03:20:54;2.08;;;1.75;;
78156;SDS011;67400;49.360;8.266;2023-05-10T03:22:19;5.35;;;2.40;;
78156;SDS011;67400;49.360;8.266;2023-05-10T03:23:41;2.08;;;1.58;;
78156;SDS011;67400;49.360;8.266;2023-05-10T03:25:04;2.67;;;1.65;;
78156;SDS011;67400;49.360;8.266;2023-05-10T03:26:26;1.70;;;1.38;;
78156;SDS011;67400;49.360;8.266;2023-05-10T03:27:54;2.05;;;1.70;;
78156;SDS011;67400;49.360;8.266;2023-05-10T03:29:15;2.67;;;1.90;;
78156;SDS011;67400;49.360;8.266;2023-05-10T03:30:35;2.53;;;1.80;;
78156;SDS011;67400;49.360;8.266;2023-05-10T03:31:55;2.92;;;1.70;;
78156;SDS011;67400;49.360;8.266;2023-05-10T03:33:15;2.42;;;1.67;;
78156;SDS011;67400;49.360;8.266;2023-05-10T03:34:41;2.80;;;2.00;;
78156;SDS011;67400;49.360;8.266;2023-05-10T03:36:02;2.65;;;1.88;;
78156;SDS011;67400;49.360;8.266;2023-05-10T03:37:22;2.97;;;1.90;;
78156;SDS011;67400;49.360;8.266;2023-05-10T03:38:42;4.15;;;1.98;;
78156;SDS011;67400;49.360;8.266;2023-05-10T03:40:02;2.30;;;1.88;;
78156;SDS011;67400;49.360;8.266;2023-05-10T03:41:24;4.07;;;1.73;;
78156;SDS011;67400;49.360;8.266;2023-05-10T03:42:44;7.55;;;2.03;;
78156;SDS011;67400;49.360;8.266;2023-05-10T03:44:05;2.47;;;2.00;;
78156;SDS011;67400;49.360;8.266;2023-05-10T03:45:24;2.35;;;1.85;;
78156;SDS011;67400;49.360;8.266;2023-05-10T03:46:44;4.18;;;1.88;;
78156;SDS011;67400;49.360;8.266;2023-05-10T03:48:04;6.68;;;1.95;;
78156;SDS011;67400;49.360;8.266;2023-05-10T03:49:24;2.45;;;1.85;;
78156;SDS011;67400;49.360;8.266;2023-05-10T03:50:45;2.95;;;2.08;;
78156;SDS011;67400;49.360;8.266;2023-05-10T03:52:05;2.65;;;1.90;;
78156;SDS011;67400;49.360;8.266;2023-05-10T03:53:25;3.35;;;2.20;;
78156;SDS011;67400;49.360;8.266;2023-05-10T03:54:45;3.03;;;1.98;;
78156;SDS011;67400;49.360;8.266;2023-05-10T03:56:05;2.90;;;2.03;;
78156;SDS011;67400;49.360;8.266;2023-05-10T03:57:24;2.75;;;2.17;;
78156;SDS011;67400;49.360;8.266;2023-05-10T03:58:46;6.18;;;2.03;;
78156;SDS011;67400;49.360;8.266;2023-05-10T04:00:06;3.65;;;2.15;;
78156;SDS011;67400;49.360;8.266;2023-05-10T04:01:33;4.28;;;2.22;;
78156;SDS011;67400;49.360;8.266;2023-05-10T04:02:53;6.70;;;2.35;;
78156;SDS011;67400;49.360;8.266;2023-05-10T04:04:13;3.45;;;1.90;;
78156;SDS011;67400;49.360;8.266;2023-05-10T04:05:33;6.82;;;2.42;;
78156;SDS011;67400;49.360;8.266;2023-05-10T04:06:53;8.93;;;2.67;;
78156;SDS011;67400;49.360;8.266;2023-05-10T04:08:13;3.10;;;2.22;;
78156;SDS011;67400;49.360;8.266;2023-05-10T04:09:34;3.25;;;2.85;;
78156;SDS011;67400;49.360;8.266;2023-05-10T04:10:54;3.45;;;2.22;;
78156;SDS011;67400;49.360;8.266;2023-05-10T04:12:14;3.25;;;2.40;;
78156;SDS011;67400;49.360;8.266;2023-05-10T04:13:35;5.38;;;2.60;;
78156;SDS011;67400;49.360;8.266;2023-05-10T04:14:54;4.10;;;2.42;;
78156;SDS011;67400;49.360;8.266;2023-05-10T04:16:14;3.88;;;2.40;;
78156;SDS011;67400;49.360;8.266;2023-05-10T04:17:33;3.92;;;2.35;;
78156;SDS011;67400;49.360;8.266;2023-05-10T04:18:53;5.28;;;2.50;;
78156;SDS011;67400;49.360;8.266;2023-05-10T04:20:13;5.68;;;2.38;;
78156;SDS011;67400;49.360;8.266;2023-05-10T04:21:33;2.67;;;2.20;;
78156;SDS011;67400;49.360;8.266;2023-05-10T04:22:55;4.97;;;2.42;;
78156;SDS011;67400;49.360;8.266;2023-05-10T04:24:15;2.50;;;2.13;;
78156;SDS011;67400;49.360;8.266;2023-05-10T04:25:35;3.63;;;2.35;;
78156;SDS011;67400;49.360;8.266;2023-05-10T04:26:55;2.63;;;2.08;;
78156;SDS011;67400;49.360;8.266;2023-05-10T04:28:14;6.60;;;2.42;;
78156;SDS011;67400;49.360;8.266;2023-05-10T04:29:34;6.38;;;2.97;;
78156;SDS011;67400;49.360;8.266;2023-05-10T04:31:00;3.05;;;2.63;;
78156;SDS011;67400;49.360;8.266;2023-05-10T04:32:20;8.32;;;2.65;;
78156;SDS011;67400;49.360;8.266;2023-05-10T04:33:39;3.50;;;2.13;;
78156;SDS011;67400;49.360;8.266;2023-05-10T04:34:59;4.65;;;2.30;;
78156;SDS011;67400;49.360;8.266;2023-05-10T04:36:21;3.75;;;2.50;;
78156;SDS011;67400;49.360;8.266;2023-05-10T04:37:41;3.85;;;2.63;;
78156;SDS011;67400;49.360;8.266;2023-05-10T04:39:02;3.33;;;2.40;;
78156;SDS011;67400;49.360;8.266;2023-05-10T04:40:22;2.92;;;2.33;;
78156;SDS011;67400;49.360;8.266;2023-05-10T04:41:42;5.68;;;2.47;;
78156;SDS011;67400;49.360;8.266;2023-05-10T04:43:02;3.35;;;2.33;;
78156;SDS011;67400;49.360;8.266;2023-05-10T04:44:22;2.95;;;2.25;;
78156;SDS011;67400;49.360;8.266;2023-05-10T04:45:42;5.10;;;2.25;;
78156;SDS011;67400;49.360;8.266;2023-05-10T04:47:03;2.42;;;2.10;;
78156;SDS011;67400;49.360;8.266;2023-05-10T04:48:23;3.33;;;2.30;;
78156;SDS011;67400;49.360;8.266;2023-05-10T04:49:42;4.00;;;3.03;;
78156;SDS011;67400;49.360;8.266;2023-05-10T04:51:02;4.22;;;2.75;;
78156;SDS011;67400;49.360;8.266;2023-05-10T04:52:22;5.32;;;2.70;;
78156;SDS011;67400;49.360;8.266;2023-05-10T04:53:42;5.07;;;2.58;;
78156;SDS011;67400;49.360;8.266;2023-05-10T04:55:01;7.47;;;2.78;;
78156;SDS011;67400;49.360;8.266;2023-05-10T04:56:21;6.10;;;2.78;;
78156;SDS011;67400;49.360;8.266;2023-05-10T04:57:40;6.03;;;2.65;;
78156;SDS011;67400;49.360;8.266;2023-05-10T04:59:00;4.00;;;2.47;;
78156;SDS011;67400;49.360;8.266;2023-05-10T05:00:20;3.67;;;2.42;;
78156;SDS011;67400;49.360;8.266;2023-05-10T05:01:40;3.55;;;2.33;;
78156;SDS011;67400;49.360;8.266;2023-05-10T05:03:00;5.07;;;2.22;;
78156;SDS011;67400;49.360;8.266;2023-05-10T05:04:19;6.20;;;2.85;;
78156;SDS011;67400;49.360;8.266;2023-05-10T05:05:41;3.88;;;2.85;;
78156;SDS011;67400;49.360;8.266;2023-05-10T05:07:01;4.13;;;2.70;;
78156;SDS011;67400;49.360;8.266;2023-05-10T05:08:20;5.03;;;2.75;;
78156;SDS011;67400;49.360;8.266;2023-05-10T05:09:43;3.17;;;2.80;;
78156;SDS011;67400;49.360;8.266;2023-05-10T05:11:05;5.93;;;2.83;;
78156;SDS011;67400;49.360;8.266;2023-05-10T05:12:25;3.53;;;2.85;;
78156;SDS011;67400;49.360;8.266;2023-05-10T05:13:44;3.72;;;2.80;;
78156;SDS011;67400;49.360;8.266;2023-05-10T05:15:04;3.20;;;2.35;;
78156;SDS011;67400;49.360;8.266;2023-05-10T05:16:24;3.92;;;2.72;;
78156;SDS011;67400;49.360;8.266;2023-05-10T05:17:44;3.58;;;2.72;;
78156;SDS011;67400;49.360;8.266;2023-05-10T05:19:03;4.22;;;2.60;;
78156;SDS011;67400;49.360;8.266;2023-05-10T05:20:22;3.53;;;3.13;;
78156;SDS011;67400;49.360;8.266;2023-05-10T05:21:42;4.60;;;2.80;;
78156;SDS011;67400;49.360;8.266;2023-05-10T05:23:02;5.80;;;2.60;;
78156;SDS011;67400;49.360;8.266;2023-05-10T05:24:22;3.35;;;2.67;;
78156;SDS011;67400;49.360;8.266;2023-05-10T05:25:42;5.85;;;2.60;;
78156;SDS011;67400;49.360;8.266;2023-05-10T05:27:02;5.15;;;2.90;;
78156;SDS011;67400;49.360;8.266;2023-05-10T05:28:21;4.18;;;2.75;;
78156;SDS011;67400;49.360;8.266;2023-05-10T05:29:41;6.05;;;2.60;;
78156;SDS011;67400;49.360;8.266;2023-05-10T05:31:00;4.53;;;2.47;;
78156;SDS011;67400;49.360;8.266;2023-05-10T05:32:20;3.55;;;2.40;;
78156;SDS011;67400;49.360;8.266;2023-05-10T05:33:40;6.70;;;2.60;;
78156;SDS011;67400;49.360;8.266;2023-05-10T05:34:59;5.43;;;2.90;;
78156;SDS011;67400;49.360;8.266;2023-05-10T05:36:19;4.50;;;2.92;;
78156;SDS011;67400;49.360;8.266;2023-05-10T05:37:39;4.15;;;2.50;;
78156;SDS011;67400;49.360;8.266;2023-05-10T05:38:59;3.92;;;2.45;;
78156;SDS011;67400;49.360;8.266;2023-05-10T05:40:18;2.75;;;2.28;;
78156;SDS011;67400;49.360;8.266;2023-05-10T05:41:38;2.70;;;2.10;;
78156;SDS011;67400;49.360;8.266;2023-05-10T05:42:58;3.65;;;2.20;;
78156;SDS011;67400;49.360;8.266;2023-05-10T05:44:17;3.78;;;2.22;;
78156;SDS011;67400;49.360;8.266;2023-05-10T05:45:37;3.30;;;2.15;;
78156;SDS011;67400;49.360;8.266;2023-05-10T05:46:56;3.83;;;1.98;;
78156;SDS011;67400;49.360;8.266;2023-05-10T05:48:16;4.05;;;2.22;;
78156;SDS011;67400;49.360;8.266;2023-05-10T05:49:36;2.88;;;1.83;;
78156;SDS011;67400;49.360;8.266;2023-05-10T05:50:56;3.50;;;2.15;;
78156;SDS011;67400;49.360;8.266;2023-05-10T05:52:16;4.88;;;1.90;;
78156;SDS011;67400;49.360;8.266;2023-05-10T05:53:36;3.35;;;2.03;;
78156;SDS011;67400;49.360;8.266;2023-05-10T05:54:55;2.45;;;1.95;;
78156;SDS011;67400;49.360;8.266;2023-05-10T05:56:15;3.45;;;2.25;;
78156;SDS011;67400;49.360;8.266;2023-05-10T05:57:36;3.58;;;2.08;;
78156;SDS011;67400;49.360;8.266;2023-05-10T05:58:55;2.70;;;2.30;;
78156;SDS011;67400;49.360;8.266;2023-05-10T06:00:15;4.72;;;2.67;;
78156;SDS011;67400;49.360;8.266;2023-05-10T06:01:35;7.43;;;2.50;;
78156;SDS011;67400;49.360;8.266;2023-05-10T06:02:54;5.50;;;2.35;;
78156;SDS011;67400;49.360;8.266;2023-05-10T06:04:14;2.30;;;2.10;;
78156;SDS011;67400;49.360;8.266;2023-05-10T06:05:34;3.70;;;2.40;;
78156;SDS011;67400;49.360;8.266;2023-05-10T06:06:53;4.20;;;2.75;;
78156;SDS011;67400;49.360;8.266;2023-05-10T06:08:13;3.05;;;2.17;;
78156;SDS011;67400;49.360;8.266;2023-05-10T06:09:33;4.88;;;2.40;;
78156;SDS011;67400;49.360;8.266;2023-05-10T06:10:53;2.20;;;2.00;;
78156;SDS011;67400;49.360;8.266;2023-05-10T06:12:12;4.43;;;2.35;;
78156;SDS011;67400;49.360;8.266;2023-05-10T06:13:32;4.07;;;2.10;;
78156;SDS011;67400;49.360;8.266;2023-05-10T06:14:53;2.58;;;2.10;;
78156;SDS011;67400;49.360;8.266;2023-05-10T06:16:13;2.22;;;1.90;;
78156;SDS011;67400;49.360;8.266;2023-05-10T06:17:33;2.53;;;1.80;;
78156;SDS011;67400;49.360;8.266;2023-05-10T06:18:53;3.83;;;1.85;;
78156;SDS011;67400;49.360;8.266;2023-05-10T06:20:12;4.60;;;1.90;;
78156;SDS011;67400;49.360;8.266;2023-05-10T06:21:32;2.05;;;1.85;;
78156;SDS011;67400;49.360;8.266;2023-05-10T06:22:51;4.03;;;1.67;;
78156;SDS011;67400;49.360;8.266;2023-05-10T06:24:11;1.70;;;1.50;;
78156;SDS011;67400;49.360;8.266;2023-05-10T06:25:30;2.55;;;1.85;;
78156;SDS011;67400;49.360;8.266;2023-05-10T06:26:50;4.07;;;1.80;;
78156;SDS011;67400;49.360;8.266;2023-05-10T06:28:10;3.47;;;1.80;;
78156;SDS011;67400;49.360;8.266;2023-05-10T06:29:30;4.72;;;2.15;;
78156;SDS011;67400;49.360;8.266;2023-05-10T06:30:49;4.55;;;1.95;;
78156;SDS011;67400;49.360;8.266;2023-05-10T06:32:09;4.13;;;2.10;;
78156;SDS011;67400;49.360;8.266;2023-05-10T06:33:28;2.30;;;2.03;;
78156;SDS011;67400;49.360;8.266;2023-05-10T06:34:48;4.22;;;1.92;;
78156;SDS011;67400;49.360;8.266;2023-05-10T06:36:07;2.50;;;2.00;;
78156;SDS011;67400;49.360;8.266;2023-05-10T06:37:27;3.60;;;1.98;;
78156;SDS011;67400;49.360;8.266;2023-05-10T06:38:47;2.55;;;1.80;;
78156;SDS011;67400;49.360;8.266;2023-05-10T06:40:07;2.95;;;2.00;;
78156;SDS011;67400;49.360;8.266;2023-05-10T06:41:27;2.97;;;2.03;;
78156;SDS011;67400;49.360;8.266;2023-05-10T06:42:47;3.67;;;2.10;;
78156;SDS011;67400;49.360;8.266;2023-05-10T06:44:07;2.65;;;1.75;;
78156;SDS011;67400;49.360;8.266;2023-05-10T06:45:27;3.03;;;1.60;;
78156;SDS011;67400;49.360;8.266;2023-05-10T06:46:46;2.30;;;1.40;;
78156;SDS011;67400;49.360;8.266;2023-05-10T06:48:06;4.93;;;2.17;;
78156;SDS011;67400;49.360;8.266;2023-05-10T06:49:25;2.60;;;1.52;;
78156;SDS011;67400;49.360;8.266;2023-05-10T06:50:45;2.45;;;1.42;;
78156;SDS011;67400;49.360;8.266;2023-05-10T06:52:04;5.07;;;1.50;;
78156;SDS011;67400;49.360;8.266;2023-05-10T06:53:24;3.15;;;1.50;;
78156;SDS011;67400;49.360;8.266;2023-05-10T06:54:43;3.13;;;1.83;;
78156;SDS011;67400;49.360;8.266;2023-05-10T06:56:03;1.73;;;1.40;;
78156;SDS011;67400;49.360;8.266;2023-05-10T06:57:23;2.78;;;1.70;;
78156;SDS011;67400;49.360;8.266;2023-05-10T06:58:43;3.25;;;1.50;;
78156;SDS011;67400;49.360;8.266;2023-05-10T07:00:03;5.45;;;1.63;;
78156;SDS011;67400;49.360;8.266;2023-05-10T07:01:23;2.63;;;1.60;;
78156;SDS011;67400;49.360;8.266;2023-05-10T07:02:43;1.35;;;1.10;;
78156;SDS011;67400;49.360;8.266;2023-05-10T07:04:03;1.90;;;1.02;;
78156;SDS011;67400;49.360;8.266;2023-05-10T07:05:22;2.22;;;1.27;;
78156;SDS011;67400;49.360;8.266;2023-05-10T07:06:42;3.63;;;1.33;;
78156;SDS011;67400;49.360;8.266;2023-05-10T07:08:02;1.40;;;1.30;;
78156;SDS011;67400;49.360;8.266;2023-05-10T07:09:22;3.28;;;1.23;;
78156;SDS011;67400;49.360;8.266;2023-05-10T07:10:43;1.70;;;1.23;;
78156;SDS011;67400;49.360;8.266;2023-05-10T07:12:03;1.92;;;1.10;;
78156;SDS011;67400;49.360;8.266;2023-05-10T07:13:22;1.40;;;0.90;;
78156;SDS011;67400;49.360;8.266;2023-05-10T07:14:42;1.10;;;1.00;;
78156;SDS011;67400;49.360;8.266;2023-05-10T07:16:02;1.00;;;0.90;;
78156;SDS011;67400;49.360;8.266;2023-05-10T07:17:21;1.40;;;1.00;;
78156;SDS011;67400;49.360;8.266;2023-05-10T07:18:41;1.83;;;1.00;;
78156;SDS011;67400;49.360;8.266;2023-05-10T07:20:01;2.55;;;1.30;;
78156;SDS011;67400;49.360;8.266;2023-05-10T07:21:22;1.50;;;1.00;;
78156;SDS011;67400;49.360;8.266;2023-05-10T07:22:47;1.90;;;0.90;;
78156;SDS011;67400;49.360;8.266;2023-05-10T07:24:06;2.25;;;1.02;;
78156;SDS011;67400;49.360;8.266;2023-05-10T07:25:26;1.67;;;1.00;;
78156;SDS011;67400;49.360;8.266;2023-05-10T07:26:45;0.80;;;0.80;;
78156;SDS011;67400;49.360;8.266;2023-05-10T07:28:05;1.30;;;1.00;;
78156;SDS011;67400;49.360;8.266;2023-05-10T07:29:24;1.73;;;0.98;;
78156;SDS011;67400;49.360;8.266;2023-05-10T07:30:44;3.40;;;1.02;;
78156;SDS011;67400;49.360;8.266;2023-05-10T07:32:04;1.27;;;0.90;;
78156;SDS011;67400;49.360;8.266;2023-05-10T07:33:24;1.30;;;0.90;;
78156;SDS011;67400;49.360;8.266;2023-05-10T07:34:44;2.00;;;0.90;;
78156;SDS011;67400;49.360;8.266;2023-05-10T07:36:04;2.35;;;0.98;;
78156;SDS011;67400;49.360;8.266;2023-05-10T07:37:26;3.13;;;0.90;;
78156;SDS011;67400;49.360;8.266;2023-05-10T07:38:46;1.00;;;0.80;;
78156;SDS011;67400;49.360;8.266;2023-05-10T07:40:06;1.60;;;0.75;;
78156;SDS011;67400;49.360;8.266;2023-05-10T07:41:26;3.33;;;1.05;;
78156;SDS011;67400;49.360;8.266;2023-05-10T07:42:46;1.05;;;0.90;;
78156;SDS011;67400;49.360;8.266;2023-05-10T07:44:05;5.28;;;0.90;;
78156;SDS011;67400;49.360;8.266;2023-05-10T07:45:25;1.95;;;0.77;;
78156;SDS011;67400;49.360;8.266;2023-05-10T07:46:44;1.35;;;0.70;;
78156;SDS011;67400;49.360;8.266;2023-05-10T07:48:04;1.63;;;0.80;;
78156;SDS011;67400;49.360;8.266;2023-05-10T07:49:25;1.50;;;0.88;;
78156;SDS011;67400;49.360;8.266;2023-05-10T07:50:45;4.95;;;0.90;;
78156;SDS011;67400;49.360;8.266;2023-05-10T07:52:04;1.38;;;0.90;;
78156;SDS011;67400;49.360;8.266;2023-05-10T07:53:25;1.27;;;0.82;;
78156;SDS011;67400;49.360;8.266;2023-05-10T07:54:45;2.72;;;1.08;;
78156;SDS011;67400;49.360;8.266;2023-05-10T07:57:40;1.25;;;0.80;;
78156;SDS011;67400;49.360;8.266;2023-05-10T07:58:59;0.93;;;0.80;;
78156;SDS011;67400;49.360;8.266;2023-05-10T08:00:19;1.55;;;0.90;;
78156;SDS011;67400;49.360;8.266;2023-05-10T08:01:39;1.67;;;0.77;;
78156;SDS011;67400;49.360;8.266;2023-05-10T08:02:59;2.50;;;1.00;;
78156;SDS011;67400;49.360;8.266;2023-05-10T08:04:19;3.50;;;1.30;;
78156;SDS011;67400;49.360;8.266;2023-05-10T08:05:38;1.40;;;1.13;;
78156;SDS011;67400;49.360;8.266;2023-05-10T08:06:58;1.15;;;0.90;;
78156;SDS011;67400;49.360;8.266;2023-05-10T08:08:18;2.95;;;1.15;;
78156;SDS011;67400;49.360;8.266;2023-05-10T08:09:38;2.47;;;1.10;;
78156;SDS011;67400;49.360;8.266;2023-05-10T08:10:58;1.35;;;1.08;;
78156;SDS011;67400;49.360;8.266;2023-05-10T08:12:17;1.77;;;1.20;;
78156;SDS011;67400;49.360;8.266;2023-05-10T08:13:37;3.25;;;1.17;;
78156;SDS011;67400;49.360;8.266;2023-05-10T08:14:57;1.10;;;1.00;;
78156;SDS011;67400;49.360;8.266;2023-05-10T08:16:17;2.45;;;1.27;;
78156;SDS011;67400;49.360;8.266;2023-05-10T08:17:36;2.85;;;1.10;;
78156;SDS011;67400;49.360;8.266;2023-05-10T08:18:56;1.55;;;1.10;;
78156;SDS011;67400;49.360;8.266;2023-05-10T08:20:16;3.08;;;1.20;;
78156;SDS011;67400;49.360;8.266;2023-05-10T08:21:37;1.70;;;0.95;;
78156;SDS011;67400;49.360;8.266;2023-05-10T08:22:59;2.28;;;1.30;;
78156;SDS011;67400;49.360;8.266;2023-05-10T08:24:18;1.73;;;1.10;;